createdAt,value
2022-08-27T00:00:56.351Z,3.67
2022-08-27T00:03:42.019Z,4.28
2022-08-27T00:06:27.496Z,4.78
2022-08-27T00:09:12.763Z,4.43
2022-08-27T00:11:58.847Z,4.18
2022-08-27T00:14:44.396Z,4.20
2022-08-27T00:17:29.504Z,4.28
2022-08-27T00:20:18.015Z,3.55
2022-08-27T00:23:03.341Z,4.30
2022-08-27T00:25:48.590Z,4.55
2022-08-27T00:28:35.026Z,3.63
2022-08-27T00:31:20.295Z,3.92
2022-08-27T00:34:13.101Z,4.32
2022-08-27T00:36:58.418Z,3.83
2022-08-27T00:39:43.694Z,3.72
2022-08-27T00:42:29.499Z,4.15
2022-08-27T00:45:19.864Z,3.83
2022-08-27T00:48:08.969Z,3.83
2022-08-27T00:50:55.522Z,3.90
2022-08-27T00:53:41.345Z,4.00
2022-08-27T00:56:31.846Z,4.07
2022-08-27T00:59:18.152Z,3.78
2022-08-27T01:02:18.773Z,4.72
2022-08-27T01:05:11.405Z,4.55
2022-08-27T01:08:02.023Z,4.40
2022-08-27T01:10:48.673Z,3.80
2022-08-27T01:13:42.130Z,3.97
2022-08-27T01:16:45.805Z,4.22
2022-08-27T01:19:40.903Z,3.80
2022-08-27T01:22:45.372Z,4.10
2022-08-27T01:25:30.926Z,4.18
2022-08-27T01:28:16.553Z,4.32
2022-08-27T01:31:07.488Z,4.68
2022-08-27T01:34:18.950Z,3.90
2022-08-27T01:37:06.591Z,4.38
2022-08-27T01:39:53.490Z,4.55
2022-08-27T01:42:41.847Z,4.03
2022-08-27T01:45:30.226Z,4.25
2022-08-27T01:48:17.886Z,4.15
2022-08-27T01:51:03.516Z,4.57
2022-08-27T01:53:48.571Z,4.40
2022-08-27T01:56:33.772Z,3.97
2022-08-27T01:59:18.853Z,3.78
2022-08-27T02:02:04.990Z,4.07
2022-08-27T02:04:51.639Z,4.22
2022-08-27T02:07:39.119Z,4.18
2022-08-27T02:10:34.112Z,3.40
2022-08-27T02:13:19.412Z,3.97
2022-08-27T02:16:05.439Z,3.70
2022-08-27T02:18:50.536Z,3.70
2022-08-27T02:21:35.848Z,4.00
2022-08-27T02:24:22.750Z,4.00
2022-08-27T02:27:08.401Z,3.85
2022-08-27T02:29:54.482Z,3.75
2022-08-27T02:32:39.551Z,3.75
2022-08-27T02:35:25.440Z,3.75
2022-08-27T02:38:13.082Z,4.28
2022-08-27T02:40:58.482Z,3.88
2022-08-27T02:43:45.318Z,4.07
2022-08-27T02:46:31.398Z,3.90
2022-08-27T02:49:17.883Z,3.65
2022-08-27T02:52:03.776Z,3.63
2022-08-27T02:54:50.298Z,3.40
2022-08-27T02:57:36.413Z,3.17
2022-08-27T03:00:24.222Z,3.85
2022-08-27T03:03:10.655Z,3.75
2022-08-27T03:05:58.620Z,3.88
2022-08-27T03:08:52.163Z,3.35
2022-08-27T03:11:39.540Z,3.47
2022-08-27T03:14:24.546Z,3.75
2022-08-27T03:17:28.416Z,3.88
2022-08-27T03:20:13.975Z,3.55
2022-08-27T03:23:00.232Z,3.95
2022-08-27T03:25:51.342Z,3.80
2022-08-27T03:28:36.660Z,3.90
2022-08-27T03:31:27.363Z,3.80
2022-08-27T03:34:13.244Z,3.58
2022-08-27T03:37:00.246Z,3.40
2022-08-27T03:39:45.493Z,3.35
2022-08-27T03:42:30.750Z,3.83
2022-08-27T03:45:16.233Z,4.00
2022-08-27T03:48:01.535Z,3.38
2022-08-27T03:50:48.473Z,3.92
2022-08-27T03:53:34.813Z,3.58
2022-08-27T03:56:19.922Z,3.50
2022-08-27T03:59:06.674Z,3.75
2022-08-27T04:01:51.998Z,3.67
2022-08-27T04:04:37.146Z,3.47
2022-08-27T04:07:22.254Z,3.60
2022-08-27T04:10:09.529Z,3.78
2022-08-27T04:12:54.418Z,3.83
2022-08-27T04:15:49.697Z,3.45
2022-08-27T04:18:34.585Z,4.22
2022-08-27T04:21:20.402Z,4.35
2022-08-27T04:24:05.904Z,4.22
2022-08-27T04:26:51.677Z,3.80
2022-08-27T04:29:37.718Z,4.68
2022-08-27T04:32:27.397Z,4.72
2022-08-27T04:35:14.882Z,5.00
2022-08-27T04:38:00.109Z,5.40
2022-08-27T04:41:03.634Z,4.55
2022-08-27T04:43:58.120Z,4.50
2022-08-27T04:46:43.689Z,4.70
2022-08-27T04:49:35.652Z,5.00
2022-08-27T04:52:21.331Z,5.45
2022-08-27T04:55:07.279Z,5.50
2022-08-27T04:57:52.160Z,5.05
2022-08-27T05:00:45.172Z,4.50
2022-08-27T05:03:30.891Z,4.65
2022-08-27T05:06:17.047Z,5.07
2022-08-27T05:09:02.719Z,4.82
2022-08-27T05:11:47.956Z,5.13
2022-08-27T05:14:33.318Z,5.20
2022-08-27T05:17:18.723Z,5.07
2022-08-27T05:20:05.158Z,4.90
2022-08-27T05:22:50.224Z,5.90
2022-08-27T05:25:39.897Z,4.88
2022-08-27T05:31:15.018Z,5.35
2022-08-27T05:34:00.953Z,5.50
2022-08-27T05:36:48.707Z,6.00
2022-08-27T05:39:34.539Z,5.82
2022-08-27T05:42:19.705Z,5.50
2022-08-27T05:45:05.423Z,5.10
2022-08-27T05:47:50.791Z,4.25
2022-08-27T05:50:36.085Z,4.22
2022-08-27T05:53:21.329Z,4.40
2022-08-27T05:56:13.362Z,4.03
2022-08-27T05:59:17.205Z,4.10
2022-08-27T06:02:03.097Z,4.68
2022-08-27T06:04:48.702Z,5.00
2022-08-27T06:07:34.990Z,4.97
2022-08-27T06:10:19.934Z,4.80
2022-08-27T06:13:05.198Z,4.85
2022-08-27T06:15:50.541Z,5.53
2022-08-27T06:18:38.422Z,5.72
2022-08-27T06:21:24.936Z,5.30
2022-08-27T06:24:14.950Z,4.88
2022-08-27T06:29:45.500Z,4.68
2022-08-27T06:32:31.355Z,4.45
2022-08-27T06:35:16.421Z,5.00
2022-08-27T06:38:01.827Z,4.60
2022-08-27T06:40:46.870Z,4.40
2022-08-27T06:43:32.015Z,5.18
2022-08-27T06:46:18.867Z,4.93
2022-08-27T06:49:04.123Z,5.10
2022-08-27T06:51:49.481Z,5.10
2022-08-27T06:54:35.633Z,5.15
2022-08-27T06:57:21.305Z,4.90
2022-08-27T07:00:08.455Z,5.30
2022-08-27T07:02:53.722Z,5.45
2022-08-27T07:05:40.444Z,5.95
2022-08-27T07:08:25.949Z,5.65
2022-08-27T07:11:14.721Z,5.55
2022-08-27T07:14:00.748Z,6.28
2022-08-27T07:16:45.948Z,6.63
2022-08-27T07:19:33.717Z,6.85
2022-08-27T07:22:19.055Z,7.05
2022-08-27T07:25:04.372Z,8.40
2022-08-27T07:27:50.752Z,7.55
2022-08-27T07:30:37.569Z,7.80
2022-08-27T07:33:22.842Z,7.82
2022-08-27T07:36:09.056Z,7.40
2022-08-27T07:39:00.933Z,8.13
2022-08-27T07:42:05.525Z,6.75
2022-08-27T07:44:50.716Z,7.10
2022-08-27T07:47:35.971Z,6.90
2022-08-27T07:50:26.779Z,6.65
2022-08-27T07:53:11.643Z,6.13
2022-08-27T07:56:02.501Z,5.78
2022-08-27T07:58:47.673Z,6.13
2022-08-27T08:01:32.846Z,5.40
2022-08-27T08:04:20.274Z,4.60
2022-08-27T08:07:05.880Z,4.03
2022-08-27T08:09:51.119Z,3.85
2022-08-27T08:12:37.484Z,3.60
2022-08-27T08:15:22.578Z,3.60
2022-08-27T08:18:07.713Z,4.82
2022-08-27T08:20:58.489Z,4.10
2022-08-27T08:23:44.139Z,2.80
2022-08-27T08:26:29.668Z,2.47
2022-08-27T08:29:18.382Z,2.80
2022-08-27T08:32:06.578Z,3.00
2022-08-27T08:34:51.463Z,3.40
2022-08-27T08:37:37.863Z,2.88
2022-08-27T08:40:39.648Z,3.00
2022-08-27T08:43:51.467Z,2.72
2022-08-27T08:46:45.345Z,2.72
2022-08-27T08:49:30.634Z,2.72
2022-08-27T08:52:30.644Z,3.00
2022-08-27T08:55:40.365Z,2.75
2022-08-27T08:58:45.824Z,2.53
2022-08-27T09:01:31.255Z,2.72
2022-08-27T09:04:16.627Z,2.17
2022-08-27T09:07:46.139Z,2.33
2022-08-27T09:10:57.553Z,2.08
2022-08-27T09:13:53.315Z,2.38
2022-08-27T09:16:38.878Z,2.45
2022-08-27T09:19:24.842Z,2.65
2022-08-27T09:22:37.928Z,2.55
2022-08-27T09:25:33.496Z,2.42
2022-08-27T09:28:45.546Z,2.40
2022-08-27T09:31:36.578Z,2.20
2022-08-27T09:34:24.325Z,2.13
2022-08-27T09:37:33.876Z,1.90
2022-08-27T09:40:28.201Z,2.33
2022-08-27T09:43:16.918Z,2.47
2022-08-27T09:46:15.483Z,2.40
2022-08-27T09:49:12.550Z,2.28
2022-08-27T09:51:57.896Z,2.50
2022-08-27T09:54:47.173Z,2.10
2022-08-27T09:57:42.300Z,2.17
2022-08-27T10:00:39.851Z,2.47
2022-08-27T10:03:26.000Z,2.15
2022-08-27T10:06:13.343Z,2.38
2022-08-27T10:09:17.221Z,2.30
2022-08-27T10:12:10.514Z,2.40
2022-08-27T10:14:59.521Z,2.17
2022-08-27T10:17:56.294Z,2.20
2022-08-27T10:20:54.665Z,2.03
2022-08-27T10:24:15.330Z,1.95
2022-08-27T10:27:06.364Z,2.42
2022-08-27T10:30:36.000Z,2.28
2022-08-27T10:33:33.237Z,2.05
2022-08-27T10:36:59.689Z,1.90
2022-08-27T10:40:18.125Z,1.95
2022-08-27T10:43:34.046Z,2.05
2022-08-27T10:46:53.529Z,2.35
2022-08-27T10:50:05.413Z,2.33
2022-08-27T10:53:01.332Z,2.50
2022-08-27T10:55:52.433Z,2.20
2022-08-27T10:58:45.461Z,2.22
2022-08-27T11:01:53.965Z,2.20
2022-08-27T11:04:44.761Z,1.95
2022-08-27T11:07:44.858Z,2.10
2022-08-27T11:10:34.005Z,1.63
2022-08-27T11:13:25.257Z,1.70
2022-08-27T11:16:28.673Z,2.00
2022-08-27T11:19:36.060Z,2.00
2022-08-27T11:22:34.488Z,1.80
2022-08-27T11:25:22.280Z,1.63
2022-08-27T11:28:10.324Z,2.08
2022-08-27T11:31:21.368Z,1.63
2022-08-27T11:34:32.316Z,1.75
2022-08-27T11:37:35.070Z,1.75
2022-08-27T11:40:20.234Z,1.40
2022-08-27T11:43:13.801Z,1.50
2022-08-27T11:46:02.803Z,1.40
2022-08-27T11:48:58.314Z,1.70
2022-08-27T11:51:43.351Z,1.50
2022-08-27T11:54:46.547Z,1.67
2022-08-27T11:57:36.177Z,1.65
2022-08-27T12:00:33.904Z,1.52
2022-08-27T12:03:19.014Z,1.50
2022-08-27T12:06:17.817Z,1.55
2022-08-27T12:09:16.118Z,1.20
2022-08-27T12:12:20.433Z,1.17
2022-08-27T12:15:11.714Z,1.27
2022-08-27T12:18:17.754Z,1.23
2022-08-27T12:21:17.888Z,1.25
2022-08-27T12:24:35.260Z,1.50
2022-08-27T12:27:28.149Z,1.27
2022-08-27T12:30:28.281Z,1.40
2022-08-27T12:33:49.275Z,1.52
2022-08-27T12:36:35.282Z,1.35
2022-08-27T12:39:28.850Z,1.20
2022-08-27T12:42:19.043Z,1.27
2022-08-27T12:45:04.364Z,1.40
2022-08-27T12:47:50.601Z,1.27
2022-08-27T12:50:36.541Z,1.20
2022-08-27T12:53:31.039Z,1.40
2022-08-27T12:56:36.958Z,1.75
2022-08-27T12:59:51.177Z,1.10
2022-08-27T13:03:01.101Z,1.55
2022-08-27T13:05:49.469Z,1.40
2022-08-27T13:08:36.258Z,1.17
2022-08-27T13:11:27.587Z,0.98
2022-08-27T13:14:22.456Z,1.10
2022-08-27T13:17:11.587Z,1.13
2022-08-27T13:19:59.961Z,1.60
2022-08-27T13:22:45.495Z,1.30
2022-08-27T13:25:33.422Z,1.60
2022-08-27T13:28:22.413Z,1.40
2022-08-27T13:31:10.173Z,1.27
2022-08-27T13:33:59.725Z,1.52
2022-08-27T13:37:06.654Z,1.23
2022-08-27T13:39:56.525Z,1.60
2022-08-27T13:42:45.082Z,2.22
2022-08-27T13:45:31.504Z,1.53
2022-08-27T13:48:19.845Z,1.17
2022-08-27T13:51:10.307Z,1.40
2022-08-27T13:54:14.455Z,1.30
2022-08-27T13:57:08.243Z,1.60
2022-08-27T13:59:53.564Z,1.40
2022-08-27T14:02:40.451Z,1.08
2022-08-27T14:05:26.814Z,1.05
2022-08-27T14:08:17.723Z,1.23
2022-08-27T14:11:07.317Z,1.40
2022-08-27T14:13:53.999Z,1.70
2022-08-27T14:16:40.263Z,1.60
2022-08-27T14:19:36.590Z,1.33
2022-08-27T14:22:22.643Z,1.48
2022-08-27T14:25:09.248Z,1.17
2022-08-27T14:27:55.105Z,1.40
2022-08-27T14:30:40.434Z,1.40
2022-08-27T14:33:25.691Z,1.20
2022-08-27T14:36:11.174Z,1.45
2022-08-27T14:38:56.370Z,1.00
2022-08-27T14:41:41.749Z,1.83
2022-08-27T14:44:27.407Z,1.52
2022-08-27T14:47:16.357Z,1.50
2022-08-27T14:50:01.927Z,1.98
2022-08-27T14:52:47.295Z,1.52
2022-08-27T14:55:32.212Z,2.42
2022-08-27T14:58:17.600Z,2.20
2022-08-27T15:01:04.818Z,1.98
2022-08-27T15:03:51.235Z,6.15
2022-08-27T15:06:36.589Z,9.05
2022-08-27T15:09:23.025Z,6.25
2022-08-27T15:12:15.399Z,1.98
2022-08-27T15:15:12.520Z,1.50
2022-08-27T15:17:57.735Z,7.72
2022-08-27T15:20:43.373Z,6.75
2022-08-27T15:23:28.445Z,1.85
2022-08-27T15:26:13.724Z,2.80
2022-08-27T15:29:02.830Z,1.65
2022-08-27T15:31:51.165Z,1.85
2022-08-27T15:34:36.435Z,1.30
2022-08-27T15:37:21.932Z,1.45
2022-08-27T15:40:07.990Z,1.58
2022-08-27T15:42:59.598Z,1.27
2022-08-27T15:45:44.953Z,1.20
2022-08-27T15:48:30.445Z,2.17
2022-08-27T15:51:28.831Z,1.30
2022-08-27T15:54:14.182Z,1.63
2022-08-27T15:56:59.996Z,1.35
2022-08-27T15:59:45.766Z,1.00
2022-08-27T16:02:30.636Z,1.33
2022-08-27T16:05:16.487Z,1.08
2022-08-27T16:08:02.465Z,1.00
2022-08-27T16:10:47.840Z,1.02
2022-08-27T16:13:33.116Z,1.20
2022-08-27T16:16:24.186Z,1.10
2022-08-27T16:19:12.598Z,1.38
2022-08-27T16:22:00.749Z,1.45
2022-08-27T16:24:46.034Z,1.58
2022-08-27T16:27:31.185Z,1.33
2022-08-27T16:30:17.484Z,1.48
2022-08-27T16:33:03.080Z,1.05
2022-08-27T16:35:48.305Z,1.00
2022-08-27T16:38:33.591Z,1.27
2022-08-27T16:41:18.480Z,1.90
2022-08-27T16:44:05.014Z,2.13
2022-08-27T16:46:50.069Z,2.63
2022-08-27T16:49:54.088Z,12.45
2022-08-27T16:52:39.377Z,2.53
2022-08-27T16:55:24.652Z,2.67
2022-08-27T16:58:17.907Z,1.70
2022-08-27T17:01:07.630Z,2.95
2022-08-27T17:04:09.653Z,10.73
2022-08-27T17:06:58.357Z,2.50
2022-08-27T17:09:43.702Z,1.40
2022-08-27T17:12:29.665Z,1.20
2022-08-27T17:15:18.572Z,1.35
2022-08-27T17:18:04.324Z,1.30
2022-08-27T17:20:51.415Z,1.40
2022-08-27T17:23:40.790Z,1.10
2022-08-27T17:26:26.344Z,1.10
2022-08-27T17:29:11.714Z,1.33
2022-08-27T17:31:56.550Z,0.98
2022-08-27T17:34:41.774Z,1.13
2022-08-27T17:37:26.710Z,1.10
2022-08-27T17:40:12.136Z,1.20
2022-08-27T17:42:58.456Z,1.05
2022-08-27T17:45:49.037Z,1.13
2022-08-27T17:48:34.561Z,1.50
2022-08-27T17:51:20.931Z,1.65
2022-08-27T17:54:09.281Z,1.85
2022-08-27T17:56:54.538Z,2.10
2022-08-27T17:59:39.682Z,1.35
2022-08-27T18:02:29.962Z,1.52
2022-08-27T18:05:17.036Z,1.25
2022-08-27T18:08:02.521Z,1.35
2022-08-27T18:10:47.969Z,1.38
2022-08-27T18:13:37.106Z,1.38
2022-08-27T18:16:22.474Z,1.42
2022-08-27T18:19:08.773Z,4.97
2022-08-27T18:21:54.124Z,1.40
2022-08-27T18:24:39.301Z,1.48
2022-08-27T18:27:29.050Z,1.63
2022-08-27T18:30:14.666Z,2.30
2022-08-27T18:33:00.099Z,1.85
2022-08-27T18:35:45.741Z,2.15
2022-08-27T18:38:31.355Z,2.97
2022-08-27T18:41:18.845Z,2.35
2022-08-27T18:44:04.594Z,8.32
2022-08-27T18:47:03.151Z,5.05
2022-08-27T18:49:48.097Z,2.80
2022-08-27T18:52:33.423Z,3.22
2022-08-27T18:55:22.937Z,2.03
2022-08-27T18:58:08.218Z,3.58
2022-08-27T19:00:57.026Z,3.42
2022-08-27T19:03:45.868Z,1.92
2022-08-27T19:06:31.613Z,1.90
2022-08-27T19:09:18.056Z,1.52
2022-08-27T19:12:04.358Z,1.50
2022-08-27T19:14:49.692Z,1.83
2022-08-27T19:17:35.961Z,1.60
2022-08-27T19:20:21.670Z,1.85
2022-08-27T19:23:06.821Z,1.70
2022-08-27T19:25:52.939Z,1.65
2022-08-27T19:28:40.850Z,1.80
2022-08-27T19:31:25.880Z,1.33
2022-08-27T19:34:11.312Z,1.40
2022-08-27T19:36:58.652Z,1.20
2022-08-27T19:39:43.589Z,1.27
2022-08-27T19:42:29.346Z,1.52
2022-08-27T19:45:14.404Z,1.08
2022-08-27T19:47:59.937Z,1.58
2022-08-27T19:50:45.358Z,1.10
2022-08-27T19:53:30.222Z,1.33
2022-08-27T19:56:15.517Z,1.10
2022-08-27T19:59:14.523Z,1.70
2022-08-27T20:02:08.835Z,1.58
2022-08-27T20:05:16.308Z,1.58
2022-08-27T20:07:58.821Z,1.67
2022-08-27T20:10:44.477Z,1.35
2022-08-27T20:13:33.098Z,1.23
2022-08-27T20:16:18.369Z,1.37
2022-08-27T20:19:05.063Z,1.45
2022-08-27T20:21:50.399Z,1.73
2022-08-27T20:24:37.077Z,1.95
2022-08-27T20:27:22.307Z,2.72
2022-08-27T20:30:10.283Z,2.88
2022-08-27T20:32:55.750Z,3.30
2022-08-27T20:35:40.915Z,2.95
2022-08-27T20:38:26.174Z,3.88
2022-08-27T20:41:11.570Z,3.97
2022-08-27T20:43:57.072Z,3.88
2022-08-27T20:46:42.478Z,3.85
2022-08-27T20:49:35.428Z,3.20
2022-08-27T20:52:20.657Z,2.72
2022-08-27T20:55:06.883Z,3.08
2022-08-27T20:58:10.561Z,2.90
2022-08-27T21:00:56.057Z,2.80
2022-08-27T21:03:41.416Z,3.00
2022-08-27T21:06:26.774Z,2.67
2022-08-27T21:09:11.788Z,2.60
2022-08-27T21:11:57.532Z,2.53
2022-08-27T21:14:42.408Z,2.17
2022-08-27T21:17:28.681Z,2.00
2022-08-27T21:20:14.101Z,1.70
2022-08-27T21:23:00.067Z,1.63
2022-08-27T21:25:45.540Z,1.85
2022-08-27T21:28:31.097Z,2.97
2022-08-27T21:31:16.501Z,2.53
2022-08-27T21:34:01.865Z,2.25
2022-08-27T21:36:47.287Z,2.17
2022-08-27T21:39:34.248Z,2.45
2022-08-27T21:42:19.577Z,2.20
2022-08-27T21:45:05.659Z,2.17
2022-08-27T21:47:51.849Z,2.85
2022-08-27T21:50:37.509Z,2.42
2022-08-27T21:53:23.154Z,2.67
2022-08-27T21:56:08.605Z,3.00
2022-08-27T21:58:53.689Z,2.80
2022-08-27T22:01:39.529Z,2.25
2022-08-27T22:04:26.373Z,2.05
2022-08-27T22:07:15.197Z,2.72
2022-08-27T22:10:00.472Z,1.98
2022-08-27T22:12:45.737Z,2.22
2022-08-27T22:15:31.399Z,2.28
2022-08-27T22:18:17.444Z,1.98
2022-08-27T22:21:12.715Z,2.78
2022-08-27T22:24:02.498Z,2.42
2022-08-27T22:26:47.859Z,2.70
2022-08-27T22:29:33.119Z,2.17
2022-08-27T22:32:19.070Z,2.50
2022-08-27T22:35:05.041Z,2.28
2022-08-27T22:37:50.431Z,2.35
2022-08-27T22:40:36.197Z,2.30
2022-08-27T22:43:22.485Z,1.92
2022-08-27T22:46:08.021Z,1.77
2022-08-27T22:48:52.829Z,2.08
2022-08-27T22:51:38.060Z,2.28
2022-08-27T22:54:23.368Z,2.67
2022-08-27T22:57:10.592Z,2.85
2022-08-27T22:59:55.883Z,2.00
2022-08-27T23:02:41.061Z,2.47
2022-08-27T23:05:26.822Z,1.80
2022-08-27T23:08:14.292Z,2.40
2022-08-27T23:10:59.720Z,1.95
2022-08-27T23:13:45.316Z,2.15
2022-08-27T23:16:31.666Z,1.98
2022-08-27T23:19:17.610Z,2.20
2022-08-27T23:22:02.524Z,2.30
2022-08-27T23:25:11.945Z,2.72
2022-08-27T23:27:59.676Z,2.15
2022-08-27T23:30:45.661Z,2.30
2022-08-27T23:33:30.838Z,2.40
2022-08-27T23:36:16.069Z,2.30
2022-08-27T23:39:01.117Z,2.50
2022-08-27T23:41:46.688Z,2.08
2022-08-27T23:44:32.128Z,2.60
2022-08-27T23:47:17.787Z,3.03
2022-08-27T23:50:04.857Z,3.25
2022-08-27T23:52:50.076Z,3.58
2022-08-27T23:55:36.462Z,4.03
2022-08-27T23:58:21.481Z,4.10
